sensor_id;sensor_type;location;lat;lon;timestamp;pressure;altitude;pressure_sealevel;temperature;humidity
62725;BME280;49026;52.600;4.694;2023-12-07T00:02:07;101994.22;;;-1.01;93.61
62725;BME280;49026;52.600;4.694;2023-12-07T00:04:32;101990.78;;;-1.02;93.90
62725;BME280;49026;52.600;4.694;2023-12-07T00:07:00;101988.25;;;-1.00;93.63
62725;BME280;49026;52.600;4.694;2023-12-07T00:09:25;101986.56;;;-0.98;93.49
62725;BME280;49026;52.600;4.694;2023-12-07T00:11:51;101984.88;;;-0.96;93.56
62725;BME280;49026;52.600;4.694;2023-12-07T00:14:16;101984.88;;;-0.96;93.74
62725;BME280;49026;52.600;4.694;2023-12-07T00:16:42;101982.31;;;-0.96;93.62
62725;BME280;49026;52.600;4.694;2023-12-07T00:19:07;101978.97;;;-0.92;93.47
62725;BME280;49026;52.600;4.694;2023-12-07T00:21:33;101981.53;;;-0.92;93.42
62725;BME280;49026;52.600;4.694;2023-12-07T00:23:58;101983.28;;;-0.91;93.41
62725;BME280;49026;52.600;4.694;2023-12-07T00:26:23;101984.28;;;-0.86;93.71
62725;BME280;49026;52.600;4.694;2023-12-07T00:28:49;101978.38;;;-0.82;93.40
62725;BME280;49026;52.600;4.694;2023-12-07T00:31:14;101981.00;;;-0.80;93.04
62725;BME280;49026;52.600;4.694;2023-12-07T00:33:39;101980.19;;;-0.78;93.08
62725;BME280;49026;52.600;4.694;2023-12-07T00:36:05;101972.38;;;-0.81;93.03
62725;BME280;49026;52.600;4.694;2023-12-07T00:38:31;101985.19;;;-0.84;92.98
62725;BME280;49026;52.600;4.694;2023-12-07T00:40:57;101991.13;;;-0.88;92.98
62725;BME280;49026;52.600;4.694;2023-12-07T00:43:22;101986.69;;;-0.92;93.22
62725;BME280;49026;52.600;4.694;2023-12-07T00:45:48;101984.88;;;-0.96;93.25
62725;BME280;49026;52.600;4.694;2023-12-07T00:48:13;101981.41;;;-0.98;93.62
62725;BME280;49026;52.600;4.694;2023-12-07T00:50:41;101984.81;;;-0.99;93.74
62725;BME280;49026;52.600;4.694;2023-12-07T00:53:06;101983.09;;;-0.99;94.22
62725;BME280;49026;52.600;4.694;2023-12-07T00:55:32;101980.50;;;-0.99;94.49
62725;BME280;49026;52.600;4.694;2023-12-07T00:57:57;101981.41;;;-0.98;94.55
62725;BME280;49026;52.600;4.694;2023-12-07T01:00:25;101994.38;;;-0.95;94.62
62725;BME280;49026;52.600;4.694;2023-12-07T01:02:50;101987.47;;;-0.96;95.03
62725;BME280;49026;52.600;4.694;2023-12-07T01:05:16;101994.34;;;-0.97;95.14
62725;BME280;49026;52.600;4.694;2023-12-07T01:07:43;101990.06;;;-0.96;95.31
62725;BME280;49026;52.600;4.694;2023-12-07T01:10:09;101991.72;;;-0.98;95.35
62725;BME280;49026;52.600;4.694;2023-12-07T01:12:34;101995.03;;;-1.02;95.57
62725;BME280;49026;52.600;4.694;2023-12-07T01:15:01;101989.78;;;-1.05;95.57
62725;BME280;49026;52.600;4.694;2023-12-07T01:17:26;101985.44;;;-1.08;95.75
62725;BME280;49026;52.600;4.694;2023-12-07T01:19:51;101987.13;;;-1.10;95.77
62725;BME280;49026;52.600;4.694;2023-12-07T01:22:16;101985.38;;;-1.11;95.93
62725;BME280;49026;52.600;4.694;2023-12-07T01:24:42;101987.91;;;-1.13;95.70
62725;BME280;49026;52.600;4.694;2023-12-07T01:27:08;101982.75;;;-1.13;95.90
62725;BME280;49026;52.600;4.694;2023-12-07T01:29:34;101978.44;;;-1.14;95.95
62725;BME280;49026;52.600;4.694;2023-12-07T01:32:02;101984.50;;;-1.12;96.51
62725;BME280;49026;52.600;4.694;2023-12-07T01:34:27;101988.00;;;-1.09;96.12
62725;BME280;49026;52.600;4.694;2023-12-07T01:36:55;101988.88;;;-1.07;96.05
62725;BME280;49026;52.600;4.694;2023-12-07T01:39:23;101987.22;;;-1.05;96.17
62725;BME280;49026;52.600;4.694;2023-12-07T01:41:48;101993.31;;;-1.03;96.07
62725;BME280;49026;52.600;4.694;2023-12-07T01:44:13;101995.03;;;-1.02;96.11
62725;BME280;49026;52.600;4.694;2023-12-07T01:46:38;101995.00;;;-1.04;95.98
62725;BME280;49026;52.600;4.694;2023-12-07T01:49:04;101993.31;;;-1.03;95.88
62725;BME280;49026;52.600;4.694;2023-12-07T01:51:30;101997.63;;;-1.02;96.10
62725;BME280;49026;52.600;4.694;2023-12-07T01:53:58;101997.63;;;-1.02;95.88
62725;BME280;49026;52.600;4.694;2023-12-07T01:56:27;101991.59;;;-1.03;95.98
62725;BME280;49026;52.600;4.694;2023-12-07T01:58:56;101998.47;;;-1.03;96.01
62725;BME280;49026;52.600;4.694;2023-12-07T02:01:21;101997.56;;;-1.04;95.97
62725;BME280;49026;52.600;4.694;2023-12-07T02:03:46;101993.22;;;-1.06;96.39
62725;BME280;49026;52.600;4.694;2023-12-07T02:06:12;101989.03;;;-1.03;96.28
62725;BME280;49026;52.600;4.694;2023-12-07T02:08:38;101985.66;;;-0.99;96.65
62725;BME280;49026;52.600;4.694;2023-12-07T02:11:07;101984.88;;;-0.96;95.95
62725;BME280;49026;52.600;4.694;2023-12-07T02:13:39;101974.56;;;-0.96;96.17
62725;BME280;49026;52.600;4.694;2023-12-07T02:16:09;101973.78;;;-0.94;96.12
62725;BME280;49026;52.600;4.694;2023-12-07T02:19:02;101982.47;;;-0.90;96.12
62725;BME280;49026;52.600;4.694;2023-12-07T02:21:40;101978.13;;;-0.91;96.22
62725;BME280;49026;52.600;4.694;2023-12-07T02:24:11;101979.91;;;-0.90;96.15
62725;BME280;49026;52.600;4.694;2023-12-07T02:26:43;101985.91;;;-0.89;96.00
62725;BME280;49026;52.600;4.694;2023-12-07T02:29:08;101979.00;;;-0.90;95.78
62725;BME280;49026;52.600;4.694;2023-12-07T02:31:36;101986.75;;;-0.90;96.01
62725;BME280;49026;52.600;4.694;2023-12-07T02:34:04;101981.53;;;-0.92;95.88
62725;BME280;49026;52.600;4.694;2023-12-07T02:36:29;101979.81;;;-0.93;95.86
62725;BME280;49026;52.600;4.694;2023-12-07T02:38:59;101984.88;;;-0.96;96.03
62725;BME280;49026;52.600;4.694;2023-12-07T02:41:27;101984.88;;;-0.96;96.13
62725;BME280;49026;52.600;4.694;2023-12-07T02:43:53;101982.34;;;-0.95;96.32
62725;BME280;49026;52.600;4.694;2023-12-07T02:46:19;101978.94;;;-0.94;96.19
62725;BME280;49026;52.600;4.694;2023-12-07T02:48:44;101986.69;;;-0.94;96.03
62725;BME280;49026;52.600;4.694;2023-12-07T02:51:12;101991.81;;;-0.95;96.05
62725;BME280;49026;52.600;4.694;2023-12-07T02:53:37;101984.13;;;-0.94;96.22
62725;BME280;49026;52.600;4.694;2023-12-07T02:56:05;101984.97;;;-0.93;96.25
62725;BME280;49026;52.600;4.694;2023-12-07T02:58:32;101990.13;;;-0.93;96.17
62725;BME280;49026;52.600;4.694;2023-12-07T03:00:58;101986.69;;;-0.92;96.16
62725;BME280;49026;52.600;4.694;2023-12-07T03:03:24;101987.56;;;-0.93;96.16
62725;BME280;49026;52.600;4.694;2023-12-07T03:05:49;101985.75;;;-0.96;96.10
62725;BME280;49026;52.600;4.694;2023-12-07T03:08:14;101986.66;;;-0.95;96.31
62725;BME280;49026;52.600;4.694;2023-12-07T03:10:42;101990.91;;;-0.96;96.33
62725;BME280;49026;52.600;4.694;2023-12-07T03:13:07;101997.78;;;-0.96;96.52
62725;BME280;49026;52.600;4.694;2023-12-07T03:15:35;102002.94;;;-0.96;96.21
62725;BME280;49026;52.600;4.694;2023-12-07T03:18:00;101998.63;;;-0.97;96.33
62725;BME280;49026;52.600;4.694;2023-12-07T03:20:26;101991.72;;;-0.98;96.46
62725;BME280;49026;52.600;4.694;2023-12-07T03:22:51;101997.66;;;-1.01;96.44
62725;BME280;49026;52.600;4.694;2023-12-07T03:25:16;101996.81;;;-1.01;96.31
62725;BME280;49026;52.600;4.694;2023-12-07T03:27:42;101994.22;;;-1.01;96.60
62725;BME280;49026;52.600;4.694;2023-12-07T03:30:07;101990.78;;;-1.02;96.19
62725;BME280;49026;52.600;4.694;2023-12-07T03:32:32;101989.09;;;-1.00;96.77
62725;BME280;49026;52.600;4.694;2023-12-07T03:34:58;101990.00;;;-0.98;96.32
62725;BME280;49026;52.600;4.694;2023-12-07T03:37:23;101992.63;;;-0.96;96.28
62725;BME280;49026;52.600;4.694;2023-12-07T03:39:49;101994.44;;;-0.94;96.30
62725;BME280;49026;52.600;4.694;2023-12-07T03:42:20;101989.28;;;-0.92;96.41
62725;BME280;49026;52.600;4.694;2023-12-07T03:44:45;101983.22;;;-0.94;96.50
62725;BME280;49026;52.600;4.694;2023-12-07T03:47:12;101978.06;;;-0.94;96.35
62725;BME280;49026;52.600;4.694;2023-12-07T03:49:38;101978.97;;;-0.92;96.65
62725;BME280;49026;52.600;4.694;2023-12-07T03:52:04;101981.59;;;-0.90;96.59
62725;BME280;49026;52.600;4.694;2023-12-07T03:54:29;101975.56;;;-0.91;96.31
62725;BME280;49026;52.600;4.694;2023-12-07T03:56:55;101972.97;;;-0.91;96.81
62725;BME280;49026;52.600;4.694;2023-12-07T03:59:20;101971.34;;;-0.87;96.82
62725;BME280;49026;52.600;4.694;2023-12-07T04:01:45;101970.56;;;-0.85;96.88
62725;BME280;49026;52.600;4.694;2023-12-07T04:04:13;101969.75;;;-0.82;96.42
62725;BME280;49026;52.600;4.694;2023-12-07T04:06:38;101974.91;;;-0.82;96.53
62725;BME280;49026;52.600;4.694;2023-12-07T04:09:06;101968.09;;;-0.80;96.66
62725;BME280;49026;52.600;4.694;2023-12-07T04:11:31;101968.06;;;-0.82;96.50
62725;BME280;49026;52.600;4.694;2023-12-07T04:13:56;101976.53;;;-0.86;96.58
62725;BME280;49026;52.600;4.694;2023-12-07T04:16:24;101970.59;;;-0.83;96.87
62725;BME280;49026;52.600;4.694;2023-12-07T04:18:49;101972.28;;;-0.84;96.63
62725;BME280;49026;52.600;4.694;2023-12-07T04:21:14;101972.28;;;-0.84;96.87
62725;BME280;49026;52.600;4.694;2023-12-07T04:23:42;101968.03;;;-0.83;96.88
62725;BME280;49026;52.600;4.694;2023-12-07T04:26:07;101974.03;;;-0.83;96.79
62725;BME280;49026;52.600;4.694;2023-12-07T04:28:33;101968.03;;;-0.83;96.92
62725;BME280;49026;52.600;4.694;2023-12-07T04:30:58;101970.59;;;-0.83;97.04
62725;BME280;49026;52.600;4.694;2023-12-07T04:33:23;101964.53;;;-0.84;96.88
62725;BME280;49026;52.600;4.694;2023-12-07T04:35:48;101963.69;;;-0.84;97.06
62725;BME280;49026;52.600;4.694;2023-12-07T04:38:14;101966.31;;;-0.83;96.97
62725;BME280;49026;52.600;4.694;2023-12-07T04:40:39;101956.03;;;-0.81;97.02
62725;BME280;49026;52.600;4.694;2023-12-07T04:43:07;101962.00;;;-0.82;97.14
62725;BME280;49026;52.600;4.694;2023-12-07T04:45:33;101958.56;;;-0.83;97.10
62725;BME280;49026;52.600;4.694;2023-12-07T04:47:58;101965.44;;;-0.83;97.19
62725;BME280;49026;52.600;4.694;2023-12-07T04:50:25;101968.06;;;-0.82;97.24
62725;BME280;49026;52.600;4.694;2023-12-07T04:52:50;101968.03;;;-0.83;97.16
62725;BME280;49026;52.600;4.694;2023-12-07T04:55:16;101961.91;;;-0.85;97.09
62725;BME280;49026;52.600;4.694;2023-12-07T04:57:41;101967.97;;;-0.85;97.14
62725;BME280;49026;52.600;4.694;2023-12-07T05:00:06;101968.81;;;-0.86;97.01
62725;BME280;49026;52.600;4.694;2023-12-07T05:02:35;101969.66;;;-0.85;97.06
62725;BME280;49026;52.600;4.694;2023-12-07T05:05:01;101971.41;;;-0.84;97.07
62725;BME280;49026;52.600;4.694;2023-12-07T05:07:26;101963.69;;;-0.84;97.39
62725;BME280;49026;52.600;4.694;2023-12-07T05:09:54;101962.00;;;-0.82;97.11
62725;BME280;49026;52.600;4.694;2023-12-07T05:12:19;101963.75;;;-0.81;97.07
62725;BME280;49026;52.600;4.694;2023-12-07T05:14:44;101970.69;;;-0.80;97.25
62725;BME280;49026;52.600;4.694;2023-12-07T05:17:12;101958.72;;;-0.77;97.32
62725;BME280;49026;52.600;4.694;2023-12-07T05:19:37;101957.03;;;-0.75;97.45
62725;BME280;49026;52.600;4.694;2023-12-07T05:22:03;101955.31;;;-0.74;97.32
62725;BME280;49026;52.600;4.694;2023-12-07T05:24:28;101951.06;;;-0.73;97.44
62725;BME280;49026;52.600;4.694;2023-12-07T05:26:55;101949.38;;;-0.71;97.68
62725;BME280;49026;52.600;4.694;2023-12-07T05:29:20;101939.97;;;-0.69;97.25
62725;BME280;49026;52.600;4.694;2023-12-07T05:31:48;101948.59;;;-0.67;97.45
62725;BME280;49026;52.600;4.694;2023-12-07T05:34:14;101946.09;;;-0.64;97.44
62725;BME280;49026;52.600;4.694;2023-12-07T05:36:42;101937.53;;;-0.63;97.81
62725;BME280;49026;52.600;4.694;2023-12-07T05:39:10;101943.63;;;-0.60;97.63
62725;BME280;49026;52.600;4.694;2023-12-07T05:41:36;101947.94;;;-0.60;97.63
62725;BME280;49026;52.600;4.694;2023-12-07T05:44:02;101944.41;;;-0.62;97.55
62725;BME280;49026;52.600;4.694;2023-12-07T05:46:28;101945.34;;;-0.60;97.78
62725;BME280;49026;52.600;4.694;2023-12-07T05:48:54;101946.28;;;-0.57;97.69
62725;BME280;49026;52.600;4.694;2023-12-07T05:51:19;101944.69;;;-0.51;97.99
62725;BME280;49026;52.600;4.694;2023-12-07T05:53:45;101937.81;;;-0.51;97.88
62725;BME280;49026;52.600;4.694;2023-12-07T05:56:11;101943.09;;;-0.46;97.91
62725;BME280;49026;52.600;4.694;2023-12-07T05:58:36;101944.84;;;-0.44;97.89
62725;BME280;49026;52.600;4.694;2023-12-07T06:01:02;101937.16;;;-0.41;97.92
62725;BME280;49026;52.600;4.694;2023-12-07T06:03:28;101944.16;;;-0.36;97.94
62725;BME280;49026;52.600;4.694;2023-12-07T06:05:53;101949.34;;;-0.36;97.76
62725;BME280;49026;52.600;4.694;2023-12-07T06:08:19;101950.22;;;-0.34;97.95
62725;BME280;49026;52.600;4.694;2023-12-07T06:10:48;101958.84;;;-0.34;98.13
62725;BME280;49026;52.600;4.694;2023-12-07T06:13:18;101964.09;;;-0.31;97.99
62725;BME280;49026;52.600;4.694;2023-12-07T06:15:43;101971.94;;;-0.26;98.33
62725;BME280;49026;52.600;4.694;2023-12-07T06:18:08;101966.81;;;-0.25;98.46
62725;BME280;49026;52.600;4.694;2023-12-07T06:20:36;101966.88;;;-0.22;98.26
62725;BME280;49026;52.600;4.694;2023-12-07T06:23:01;101969.50;;;-0.20;98.62
62725;BME280;49026;52.600;4.694;2023-12-07T06:25:27;101969.50;;;-0.20;98.34
62725;BME280;49026;52.600;4.694;2023-12-07T06:27:52;101959.97;;;-0.23;98.43
62725;BME280;49026;52.600;4.694;2023-12-07T06:30:18;101960.75;;;-0.25;98.82
62725;BME280;49026;52.600;4.694;2023-12-07T06:32:44;101955.53;;;-0.28;99.49
62725;BME280;49026;52.600;4.694;2023-12-07T06:35:11;101952.88;;;-0.31;99.63
62725;BME280;49026;52.600;4.694;2023-12-07T06:37:37;101952.00;;;-0.32;99.75
62725;BME280;49026;52.600;4.694;2023-12-07T06:40:03;101945.88;;;-0.35;99.29
62725;BME280;49026;52.600;4.694;2023-12-07T06:42:31;101945.81;;;-0.39;99.54
62725;BME280;49026;52.600;4.694;2023-12-07T06:44:57;101928.53;;;-0.43;99.53
62725;BME280;49026;52.600;4.694;2023-12-07T06:47:22;101938.78;;;-0.46;99.43
62725;BME280;49026;52.600;4.694;2023-12-07T06:49:50;101939.56;;;-0.50;99.62
62725;BME280;49026;52.600;4.694;2023-12-07T06:52:15;101939.34;;;-0.59;99.70
62725;BME280;49026;52.600;4.694;2023-12-07T06:54:40;101942.78;;;-0.60;99.95
62725;BME280;49026;52.600;4.694;2023-12-07T06:57:05;101944.41;;;-0.62;100.00
62725;BME280;49026;52.600;4.694;2023-12-07T06:59:33;101945.28;;;-0.63;100.00
62725;BME280;49026;52.600;4.694;2023-12-07T07:01:59;101952.94;;;-0.66;100.00
62725;BME280;49026;52.600;4.694;2023-12-07T07:04:27;101946.03;;;-0.67;100.00
62725;BME280;49026;52.600;4.694;2023-12-07T07:06:53;101946.03;;;-0.67;100.00
62725;BME280;49026;52.600;4.694;2023-12-07T07:09:20;101941.72;;;-0.68;100.00
62725;BME280;49026;52.600;4.694;2023-12-07T07:11:49;101942.53;;;-0.69;100.00
62725;BME280;49026;52.600;4.694;2023-12-07T07:14:14;101944.22;;;-0.71;100.00
62725;BME280;49026;52.600;4.694;2023-12-07T07:16:40;101939.78;;;-0.76;100.00
62725;BME280;49026;52.600;4.694;2023-12-07T07:19:06;101933.72;;;-0.78;100.00
62725;BME280;49026;52.600;4.694;2023-12-07T07:21:31;101938.00;;;-0.80;100.00
62725;BME280;49026;52.600;4.694;2023-12-07T07:23:57;101943.91;;;-0.84;99.82
62725;BME280;49026;52.600;4.694;2023-12-07T07:26:22;101953.34;;;-0.84;99.86
62725;BME280;49026;52.600;4.694;2023-12-07T07:28:50;101944.75;;;-0.85;99.71
62725;BME280;49026;52.600;4.694;2023-12-07T07:31:16;101944.75;;;-0.85;100.00
62725;BME280;49026;52.600;4.694;2023-12-07T07:33:43;101944.72;;;-0.86;100.00
62725;BME280;49026;52.600;4.694;2023-12-07T07:36:15;101948.16;;;-0.86;99.86
62725;BME280;49026;52.600;4.694;2023-12-07T07:38:41;101949.91;;;-0.85;99.93
62725;BME280;49026;52.600;4.694;2023-12-07T07:41:06;101942.09;;;-0.88;99.85
62725;BME280;49026;52.600;4.694;2023-12-07T07:43:31;101942.91;;;-0.89;100.00
62725;BME280;49026;52.600;4.694;2023-12-07T07:45:57;101942.13;;;-0.86;100.00
62725;BME280;49026;52.600;4.694;2023-12-07T07:48:25;101947.41;;;-0.82;100.00
62725;BME280;49026;52.600;4.694;2023-12-07T07:50:51;101943.97;;;-0.81;100.00
62725;BME280;49026;52.600;4.694;2023-12-07T07:53:16;101945.81;;;-0.77;100.00
62725;BME280;49026;52.600;4.694;2023-12-07T07:55:42;101948.47;;;-0.72;100.00
62725;BME280;49026;52.600;4.694;2023-12-07T07:58:07;101955.41;;;-0.71;100.00
62725;BME280;49026;52.600;4.694;2023-12-07T08:00:33;101944.28;;;-0.68;100.00
62725;BME280;49026;52.600;4.694;2023-12-07T08:02:59;101948.72;;;-0.63;100.00
62725;BME280;49026;52.600;4.694;2023-12-07T08:05:27;101944.34;;;-0.65;100.00
62725;BME280;49026;52.600;4.694;2023-12-07T08:07:56;101949.47;;;-0.68;100.00
62725;BME280;49026;52.600;4.694;2023-12-07T08:10:22;101949.34;;;-0.73;100.00
62725;BME280;49026;52.600;4.694;2023-12-07T08:12:47;101938.81;;;-0.81;100.00
62725;BME280;49026;52.600;4.694;2023-12-07T08:15:12;101947.34;;;-0.85;100.00
62725;BME280;49026;52.600;4.694;2023-12-07T08:17:39;101938.69;;;-0.87;100.00
62725;BME280;49026;52.600;4.694;2023-12-07T08:20:09;101943.84;;;-0.87;100.00
62725;BME280;49026;52.600;4.694;2023-12-07T08:22:41;101932.63;;;-0.87;100.00
62725;BME280;49026;52.600;4.694;2023-12-07T08:25:07;101941.16;;;-0.91;100.00
62725;BME280;49026;52.600;4.694;2023-12-07T08:27:34;101942.84;;;-0.92;100.00
62725;BME280;49026;52.600;4.694;2023-12-07T08:30:00;101948.06;;;-0.89;100.00
62725;BME280;49026;52.600;4.694;2023-12-07T08:32:26;101953.31;;;-0.86;100.00
62725;BME280;49026;52.600;4.694;2023-12-07T08:34:52;101957.75;;;-0.82;100.00
62725;BME280;49026;52.600;4.694;2023-12-07T08:37:20;101957.88;;;-0.76;100.00
62725;BME280;49026;52.600;4.694;2023-12-07T08:39:48;101958.03;;;-0.69;100.00
62725;BME280;49026;52.600;4.694;2023-12-07T08:42:14;101953.75;;;-0.67;100.00
62725;BME280;49026;52.600;4.694;2023-12-07T08:44:39;101956.47;;;-0.63;100.00
62725;BME280;49026;52.600;4.694;2023-12-07T08:47:06;101948.75;;;-0.61;100.00
62725;BME280;49026;52.600;4.694;2023-12-07T08:49:32;101941.09;;;-0.58;100.00
62725;BME280;49026;52.600;4.694;2023-12-07T08:51:57;101942.81;;;-0.57;100.00
62725;BME280;49026;52.600;4.694;2023-12-07T08:54:23;101933.47;;;-0.53;100.00
62725;BME280;49026;52.600;4.694;2023-12-07T08:56:48;101936.03;;;-0.52;100.00
62725;BME280;49026;52.600;4.694;2023-12-07T08:59:13;101933.50;;;-0.50;100.00
62725;BME280;49026;52.600;4.694;2023-12-07T09:01:39;101924.16;;;-0.45;100.00
62725;BME280;49026;52.600;4.694;2023-12-07T09:04:04;101922.47;;;-0.45;100.00
62725;BME280;49026;52.600;4.694;2023-12-07T09:06:34;101921.44;;;-0.51;100.00
62725;BME280;49026;52.600;4.694;2023-12-07T09:08:59;101903.19;;;-0.59;100.00
62725;BME280;49026;52.600;4.694;2023-12-07T09:11:25;101910.94;;;-0.59;100.00
62725;BME280;49026;52.600;4.694;2023-12-07T09:13:50;101912.66;;;-0.60;100.00
62725;BME280;49026;52.600;4.694;2023-12-07T09:16:15;101904.94;;;-0.58;100.00
62725;BME280;49026;52.600;4.694;2023-12-07T09:18:41;101898.91;;;-0.57;100.00
62725;BME280;49026;52.600;4.694;2023-12-07T09:21:09;101907.63;;;-0.53;100.00
62725;BME280;49026;52.600;4.694;2023-12-07T09:23:37;101913.66;;;-0.53;100.00
62725;BME280;49026;52.600;4.694;2023-12-07T09:26:04;101909.41;;;-0.51;100.00
62725;BME280;49026;52.600;4.694;2023-12-07T09:28:31;101912.06;;;-0.48;100.00
62725;BME280;49026;52.600;4.694;2023-12-07T09:30:56;101919.81;;;-0.48;100.00
62725;BME280;49026;52.600;4.694;2023-12-07T09:33:24;101934.50;;;-0.44;100.00
62725;BME280;49026;52.600;4.694;2023-12-07T09:35:49;101938.06;;;-0.39;100.00
62725;BME280;49026;52.600;4.694;2023-12-07T09:38:15;101927.81;;;-0.35;100.00
62725;BME280;49026;52.600;4.694;2023-12-07T09:40:40;101922.53;;;-0.42;100.00
62725;BME280;49026;52.600;4.694;2023-12-07T09:43:05;101920.78;;;-0.43;100.00
62725;BME280;49026;52.600;4.694;2023-12-07T09:45:31;101925.16;;;-0.39;100.00
62725;BME280;49026;52.600;4.694;2023-12-07T09:47:56;101928.81;;;-0.29;100.00
62725;BME280;49026;52.600;4.694;2023-12-07T09:50:24;101924.59;;;-0.25;100.00
62725;BME280;49026;52.600;4.694;2023-12-07T09:52:50;101928.19;;;-0.20;100.00
62725;BME280;49026;52.600;4.694;2023-12-07T09:55:17;101927.38;;;-0.16;100.00
62725;BME280;49026;52.600;4.694;2023-12-07T09:57:43;101929.28;;;-0.07;100.00
62725;BME280;49026;52.600;4.694;2023-12-07T10:00:14;101913.06;;;-0.02;100.00
62725;BME280;49026;52.600;4.694;2023-12-07T10:02:40;101901.78;;;-0.04;100.00
62725;BME280;49026;52.600;4.694;2023-12-07T10:05:07;101901.81;;;-0.02;100.00
62725;BME280;49026;52.600;4.694;2023-12-07T10:07:43;101900.16;;;0.02;100.00
62725;BME280;49026;52.600;4.694;2023-12-07T10:10:11;101903.81;;;0.11;100.00
62725;BME280;49026;52.600;4.694;2023-12-07T10:12:54;101902.66;;;-0.05;100.00
62725;BME280;49026;52.600;4.694;2023-12-07T10:15:23;101900.06;;;-0.05;100.00
62725;BME280;49026;52.600;4.694;2023-12-07T10:17:54;101899.09;;;-0.10;100.00
62725;BME280;49026;52.600;4.694;2023-12-07T10:20:25;101900.84;;;-0.09;100.00
62725;BME280;49026;52.600;4.694;2023-12-07T10:23:04;101893.13;;;-0.07;100.00
62725;BME280;49026;52.600;4.694;2023-12-07T10:25:35;101883.63;;;-0.08;100.00
62725;BME280;49026;52.600;4.694;2023-12-07T10:28:01;101877.50;;;-0.13;100.00
62725;BME280;49026;52.600;4.694;2023-12-07T10:30:29;101880.00;;;-0.18;100.00
62725;BME280;49026;52.600;4.694;2023-12-07T10:32:54;101873.13;;;-0.16;100.00
62725;BME280;49026;52.600;4.694;2023-12-07T10:35:22;101861.94;;;-0.16;100.00
62725;BME280;49026;52.600;4.694;2023-12-07T10:37:48;101865.56;;;-0.08;100.00
62725;BME280;49026;52.600;4.694;2023-12-07T10:40:14;101868.97;;;-0.09;100.00
62725;BME280;49026;52.600;4.694;2023-12-07T10:42:41;101867.25;;;-0.09;100.00
62725;BME280;49026;52.600;4.694;2023-12-07T10:45:07;101862.00;;;-0.12;100.00
62725;BME280;49026;52.600;4.694;2023-12-07T10:47:37;101863.81;;;-0.08;100.00
62725;BME280;49026;52.600;4.694;2023-12-07T10:50:06;101868.09;;;-0.10;100.00
62725;BME280;49026;52.600;4.694;2023-12-07T10:52:37;101851.84;;;-0.04;100.00
62725;BME280;49026;52.600;4.694;2023-12-07T10:55:16;101847.59;;;-0.01;100.00
62725;BME280;49026;52.600;4.694;2023-12-07T10:57:43;101852.00;;;0.04;100.00
62725;BME280;49026;52.600;4.694;2023-12-07T11:00:10;101846.09;;;0.11;100.00
62725;BME280;49026;52.600;4.694;2023-12-07T11:02:37;101841.97;;;0.21;100.00
62725;BME280;49026;52.600;4.694;2023-12-07T11:05:06;101832.44;;;0.18;100.00
62725;BME280;49026;52.600;4.694;2023-12-07T11:07:41;101833.13;;;0.09;100.00
62725;BME280;49026;52.600;4.694;2023-12-07T11:10:20;101830.59;;;0.11;100.00
62725;BME280;49026;52.600;4.694;2023-12-07T11:13:11;101835.84;;;0.15;100.00
62725;BME280;49026;52.600;4.694;2023-12-07T11:15:35;101829.09;;;0.22;100.00
62725;BME280;49026;52.600;4.694;2023-12-07T11:18:03;101823.91;;;0.22;100.00
62725;BME280;49026;52.600;4.694;2023-12-07T11:20:47;101806.56;;;0.16;100.00
62725;BME280;49026;52.600;4.694;2023-12-07T11:23:16;101813.44;;;0.16;100.00
62725;BME280;49026;52.600;4.694;2023-12-07T11:25:49;101817.03;;;0.23;100.00
62725;BME280;49026;52.600;4.694;2023-12-07T11:28:15;101807.50;;;0.22;100.00
62725;BME280;49026;52.600;4.694;2023-12-07T11:30:44;101800.66;;;0.22;100.00
62725;BME280;49026;52.600;4.694;2023-12-07T11:33:10;101793.88;;;0.29;100.00
62725;BME280;49026;52.600;4.694;2023-12-07T11:38:29;101799.00;;;0.27;100.00
62725;BME280;49026;52.600;4.694;2023-12-07T11:40:57;101790.38;;;0.28;100.00
62725;BME280;49026;52.600;4.694;2023-12-07T11:45:57;101790.47;;;0.33;100.00
62725;BME280;49026;52.600;4.694;2023-12-07T11:48:25;101789.69;;;0.35;100.00
62725;BME280;49026;52.600;4.694;2023-12-07T11:51:03;101775.13;;;0.42;100.00
62725;BME280;49026;52.600;4.694;2023-12-07T11:53:33;101788.09;;;0.44;100.00
62725;BME280;49026;52.600;4.694;2023-12-07T11:56:00;101797.44;;;0.35;100.00
62725;BME280;49026;52.600;4.694;2023-12-07T11:58:26;101807.78;;;0.35;100.00
62725;BME280;49026;52.600;4.694;2023-12-07T12:00:52;101796.56;;;0.36;100.00
62725;BME280;49026;52.600;4.694;2023-12-07T12:03:19;101781.88;;;0.32;100.00
62725;BME280;49026;52.600;4.694;2023-12-07T12:05:45;101770.56;;;0.27;100.00
62725;BME280;49026;52.600;4.694;2023-12-07T12:08:13;101768.84;;;0.28;100.00
62725;BME280;49026;52.600;4.694;2023-12-07T12:10:40;101755.06;;;0.27;100.00
62725;BME280;49026;52.600;4.694;2023-12-07T12:13:06;101755.06;;;0.27;100.00
62725;BME280;49026;52.600;4.694;2023-12-07T12:15:39;101749.97;;;0.33;100.00
62725;BME280;49026;52.600;4.694;2023-12-07T12:18:07;101733.72;;;0.39;100.00
62725;BME280;49026;52.600;4.694;2023-12-07T12:20:33;101719.06;;;0.40;100.00
62725;BME280;49026;52.600;4.694;2023-12-07T12:22:59;101714.75;;;0.40;100.00
62725;BME280;49026;52.600;4.694;2023-12-07T12:25:26;101719.06;;;0.40;100.00
62725;BME280;49026;52.600;4.694;2023-12-07T12:27:56;101715.66;;;0.42;100.00
62725;BME280;49026;52.600;4.694;2023-12-07T12:30:22;101710.53;;;0.47;100.00
62725;BME280;49026;52.600;4.694;2023-12-07T12:32:48;101709.47;;;0.32;100.00
62725;BME280;49026;52.600;4.694;2023-12-07T12:35:13;101702.63;;;0.36;100.00
62725;BME280;49026;52.600;4.694;2023-12-07T12:37:42;101689.66;;;0.34;100.00
62725;BME280;49026;52.600;4.694;2023-12-07T12:40:11;101691.38;;;0.32;100.00
62725;BME280;49026;52.600;4.694;2023-12-07T12:42:37;101689.72;;;0.38;100.00
62725;BME280;49026;52.600;4.694;2023-12-07T12:45:08;101686.34;;;0.43;100.00
62725;BME280;49026;52.600;4.694;2023-12-07T12:47:38;101663.19;;;0.49;100.00
62725;BME280;49026;52.600;4.694;2023-12-07T12:50:05;101669.22;;;0.50;100.00
62725;BME280;49026;52.600;4.694;2023-12-07T12:52:30;101655.28;;;0.39;100.00